Time;durP1;ratioP1;P1;durP2;ratioP2;P2;SDS_P1;SDS_P2;PMS_P1;PMS_P2;Temp;Humidity;BMP_temperature;BMP_pressure;BME280_temperature;BME280_humidity;BME280_pressure;Samples;Min_cycle;Max_cycle;Signal;HPM_P1;HPM_P2
2022/01/12 00:00:05;;;;;;;16.90;10.75;;;;;;;-3.07;63.83;97212.81;4956365;28;20038;-57
2022/01/12 00:02:30;;;;;;;15.45;10.63;;;;;;;-3.01;64.24;97215.22;4961751;28;20039;-57
2022/01/12 00:04:55;;;;;;;19.85;12.55;;;;;;;-2.94;64.24;97196.72;4969358;28;20038;-57
2022/01/12 00:07:21;;;;;;;19.52;11.50;;;;;;;-2.91;64.02;97194.03;4966293;28;20031;-57
2022/01/12 00:09:46;;;;;;;16.90;10.73;;;;;;;-2.90;64.29;97196.59;4964399;28;20074;-57
2022/01/12 00:12:11;;;;;;;16.30;10.50;;;;;;;-2.97;63.04;97196.84;4961148;28;20031;-57
2022/01/12 00:14:37;;;;;;;17.83;11.35;;;;;;;-3.06;63.20;97198.03;4960712;28;20047;-57
2022/01/12 00:17:02;;;;;;;16.30;10.60;;;;;;;-3.15;63.40;97202.63;4952882;28;20673;-57
2022/01/12 00:19:29;;;;;;;15.25;10.43;;;;;;;-3.15;63.91;97202.63;4955671;28;20042;-57
2022/01/12 00:21:57;;;;;;;17.65;10.75;;;;;;;-3.13;64.04;97197.38;4960707;28;20042;-57
2022/01/12 00:24:26;;;;;;;18.02;10.60;;;;;;;-3.10;63.68;97199.88;4962513;28;20034;-57
2022/01/12 00:35:14;;;;;;;15.95;9.95;;;;;;;-2.88;63.76;97199.97;4960948;28;20514;-57
2022/01/12 00:37:39;;;;;;;13.63;8.77;;;;;;;-2.78;62.35;97199.66;4960236;28;20039;-57
2022/01/12 00:40:05;;;;;;;9.10;5.50;;;;;;;-2.80;54.87;97202.31;4964217;28;20045;-57
2022/01/12 00:42:30;;;;;;;11.05;6.45;;;;;;;-3.43;56.42;97207.94;4962473;28;20113;-57
2022/01/12 00:45:00;;;;;;;12.00;8.15;;;;;;;-3.19;61.82;97202.81;4959489;28;20567;-57
2022/01/12 00:47:25;;;;;;;12.80;9.10;;;;;;;-2.80;63.99;97207.53;4960200;28;20098;-57
2022/01/12 00:49:51;;;;;;;13.75;9.23;;;;;;;-2.56;64.53;97207.53;4961001;28;20042;-57
2022/01/12 00:52:16;;;;;;;15.27;9.45;;;;;;;-2.36;63.31;97216.38;4960172;28;20272;-57
2022/01/12 00:54:41;;;;;;;13.98;9.02;;;;;;;-2.23;57.65;97219.38;4960971;28;20039;-57
2022/01/12 00:57:07;;;;;;;14.75;8.45;;;;;;;-2.68;56.50;97221.03;4959947;28;20554;-57
2022/01/12 00:59:33;;;;;;;11.25;6.70;;;;;;;-2.86;47.96;97223.38;4950483;28;20039;-57
2022/01/12 01:01:58;;;;;;;13.63;8.00;;;;;;;-2.59;57.10;97222.44;4957582;28;20050;-57
2022/01/12 01:04:25;;;;;;;12.20;7.70;;;;;;;-2.43;58.39;97220.13;4960257;28;20567;-57
2022/01/12 01:06:51;;;;;;;12.63;7.05;;;;;;;-2.51;58.00;97221.25;4960580;28;20492;-57
2022/01/12 01:09:16;;;;;;;9.63;6.85;;;;;;;-2.38;58.48;97223.41;4958916;28;20130;-57
2022/01/12 01:11:42;;;;;;;12.15;6.70;;;;;;;-2.17;59.65;97226.13;4959913;28;20031;-57
2022/01/12 01:14:21;;;;;;;9.85;6.47;;;;;;;-2.16;56.19;97228.69;4962137;28;20471;-57
2022/01/12 01:17:16;;;;;;;10.40;7.05;;;;;;;-2.09;58.69;97221.47;4943921;28;20035;-57
2022/01/12 01:27:48;;;;;;;10.77;6.53;;;;;;;-2.18;57.77;97224.41;4960491;28;20037;-57
2022/01/12 01:30:15;;;;;;;10.63;6.57;;;;;;;-2.29;56.99;97230.03;4960303;28;20042;-57
2022/01/12 01:32:41;;;;;;;9.43;6.18;;;;;;;-2.35;56.88;97235.50;4960146;28;20154;-57
2022/01/12 01:35:07;;;;;;;11.18;6.00;;;;;;;-2.46;54.74;97225.44;4960553;28;20555;-57
2022/01/12 01:37:33;;;;;;;8.75;5.25;;;;;;;-3.19;46.20;97229.69;4960008;28;20042;-57
2022/01/12 01:39:58;;;;;;;9.10;5.68;;;;;;;-3.12;56.07;97230.38;4946738;28;20237;-57
2022/01/12 01:42:38;;;;;;;9.90;5.55;;;;;;;-2.85;57.58;97229.44;4959812;28;20047;-57
2022/01/12 01:53:22;;;;;;;12.00;6.57;;;;;;;-2.88;56.52;97227.81;4959798;28;20098;-57
2022/01/12 01:55:48;;;;;;;7.85;4.93;;;;;;;-3.12;53.56;97227.75;4962478;28;20038;-57
2022/01/12 01:58:15;;;;;;;8.00;5.03;;;;;;;-3.10;55.26;97233.75;4956963;28;20038;-57
2022/01/12 02:00:40;;;;;;;8.80;5.20;;;;;;;-3.06;56.42;97224.09;4965549;28;20071;-57
2022/01/12 02:03:05;;;;;;;11.43;6.18;;;;;;;-2.97;57.71;97225.50;4974529;28;20508;-57
2022/01/12 02:05:31;;;;;;;9.27;6.30;;;;;;;-3.01;58.60;97227.38;4960053;28;20559;-57
2022/01/12 02:07:57;;;;;;;9.00;6.00;;;;;;;-3.05;58.71;97233.59;4959967;28;20682;-57
2022/01/12 02:10:23;;;;;;;8.07;5.60;;;;;;;-4.06;50.04;97238.53;4960122;28;20512;-57
2022/01/12 02:12:48;;;;;;;6.70;4.40;;;;;;;-4.58;52.44;97249.53;4959831;28;20034;-57
2022/01/12 02:15:19;;;;;;;8.85;5.55;;;;;;;-3.94;63.34;97254.69;4959053;28;20057;-57
2022/01/12 02:18:00;;;;;;;6.82;4.60;;;;;;;-3.79;55.14;97240.31;4959301;28;20109;-57
2022/01/12 02:35:12;;;;;;;8.52;5.50;;;;;;;-3.54;58.29;97235.19;4959983;28;20347;-57
2022/01/12 02:37:00;;;;;;;8.18;5.35;;;;;;;-4.91;63.11;97253.91;4959140;28;20037;-57
2022/01/12 02:42:10;;;;;;;8.52;4.95;;;;;;;-3.98;59.54;97246.09;4965278;28;20045;-57
2022/01/12 02:55:33;;;;;;;6.82;4.57;;;;;;;-4.30;48.32;97251.38;4963273;28;20042;-57
2022/01/12 02:57:58;;;;;;;5.82;3.80;;;;;;;-5.08;50.48;97263.00;4963614;28;20069;-57
2022/01/12 03:00:31;;;;;;;6.63;4.35;;;;;;;-5.36;55.51;97264.53;4947033;28;20520;-57
2022/01/12 03:03:02;;;;;;;7.22;4.85;;;;;;;-4.56;62.69;97268.56;4980684;28;20062;-57
2022/01/12 03:05:46;;;;;;;7.88;4.53;;;;;;;-4.14;61.08;97266.53;4963064;28;20065;-57
2022/01/12 03:08:15;;;;;;;6.50;4.40;;;;;;;-4.24;53.96;97273.75;4966465;28;20033;-57
2022/01/12 03:10:40;;;;;;;7.28;4.13;;;;;;;-4.06;57.11;97272.38;4965905;28;20090;-57
2022/01/12 03:13:06;;;;;;;7.65;5.13;;;;;;;-3.99;62.20;97279.97;4965916;28;20051;-57
2022/01/12 03:15:39;;;;;;;9.25;5.45;;;;;;;-3.85;64.31;97284.75;4966260;28;20368;-58
2022/01/12 03:18:04;;;;;;;9.65;5.50;;;;;;;-3.67;63.82;97291.19;4966613;28;20199;-57
2022/01/12 03:20:30;;;;;;;7.15;4.80;;;;;;;-3.59;63.07;97298.72;4967960;28;20146;-57
2022/01/12 03:22:55;;;;;;;8.35;5.63;;;;;;;-3.55;63.81;97300.34;4982060;28;20039;-57
2022/01/12 03:25:20;;;;;;;7.93;4.93;;;;;;;-3.29;64.09;97283.03;4966971;28;20030;-57
2022/01/12 03:27:46;;;;;;;10.02;5.10;;;;;;;-3.08;63.40;97275.41;4966516;28;20035;-56
2022/01/12 03:30:12;;;;;;;9.57;5.55;;;;;;;-2.91;63.21;97280.03;4966992;28;20475;-57
2022/01/12 03:32:44;;;;;;;7.20;4.85;;;;;;;-2.76;62.67;97279.53;4966897;28;20391;-57
2022/01/12 03:35:25;;;;;;;8.25;5.03;;;;;;;-2.66;61.04;97274.84;4967322;28;20030;-57
2022/01/12 03:38:33;;;;;;;8.60;4.53;;;;;;;-2.60;61.97;97278.13;4966294;28;20047;-57
2022/01/12 03:40:39;;;;;;;6.80;4.67;;;;;;;-2.60;61.58;97273.75;4954977;28;20031;-57
2022/01/12 03:43:04;;;;;;;8.40;4.82;;;;;;;-2.59;61.52;97259.81;4959597;28;20038;-56
2022/01/12 03:45:30;;;;;;;7.43;4.90;;;;;;;-2.50;61.87;97251.66;4966371;28;20046;-56
2022/01/12 03:47:55;;;;;;;7.25;4.75;;;;;;;-2.40;62.46;97244.38;4967020;28;20039;-57
2022/01/12 03:50:21;;;;;;;7.22;4.78;;;;;;;-2.33;61.86;97237.16;4966191;28;20533;-57
2022/01/12 03:52:46;;;;;;;7.68;4.82;;;;;;;-2.33;60.72;97234.53;4966478;28;20034;-57
2022/01/12 03:55:11;;;;;;;8.15;5.18;;;;;;;-2.31;61.01;97243.16;4966445;28;20027;-57
2022/01/12 03:57:37;;;;;;;5.93;3.60;;;;;;;-2.35;51.99;97238.94;4966550;28;20039;-57
2022/01/12 04:00:04;;;;;;;5.93;4.07;;;;;;;-2.47;58.94;97249.84;4958104;28;20367;-57
2022/01/12 04:02:31;;;;;;;7.25;4.50;;;;;;;-2.35;61.92;97253.78;4966724;28;20034;-58
2022/01/12 04:10:14;;;;;;;6.60;4.63;;;;;;;-2.67;57.58;97269.66;4955521;28;20050;-57
2022/01/12 04:12:39;;;;;;;7.40;4.10;;;;;;;-2.51;60.07;97276.03;4965483;28;20034;-57
2022/01/12 04:15:05;;;;;;;6.78;4.35;;;;;;;-2.16;61.78;97266.97;4964721;28;20054;-57
2022/01/12 04:17:31;;;;;;;6.90;4.68;;;;;;;-1.95;61.41;97254.00;4957084;28;20031;-57
2022/01/12 04:19:56;;;;;;;7.10;4.80;;;;;;;-1.76;61.88;97244.53;4962300;28;20051;-56
2022/01/12 04:25:06;;;;;;;6.85;4.60;;;;;;;-1.54;61.34;97243.72;4964843;28;20598;-56
2022/01/12 04:27:32;;;;;;;6.40;4.35;;;;;;;-1.50;61.44;97236.59;4965993;28;20039;-57
2022/01/12 04:29:57;;;;;;;7.30;4.65;;;;;;;-1.44;60.48;97240.72;4965208;28;20031;-57
2022/01/12 04:32:24;;;;;;;6.95;4.47;;;;;;;-1.47;59.59;97244.31;4966271;28;20027;-57
2022/01/12 04:34:50;;;;;;;8.32;5.05;;;;;;;-1.49;61.01;97241.75;4966248;28;20049;-57
2022/01/12 04:37:15;;;;;;;6.28;4.60;;;;;;;-1.72;60.01;97242.69;4965528;28;20034;-57
2022/01/12 04:39:41;;;;;;;6.60;4.30;;;;;;;-1.80;52.47;97242.97;4965502;28;20065;-58
2022/01/12 04:42:06;;;;;;;6.13;4.30;;;;;;;-2.07;59.35;97248.34;4980849;28;20042;-57
2022/01/12 04:44:32;;;;;;;7.22;4.18;;;;;;;-2.06;60.42;97244.84;4965281;28;20062;-57
2022/01/12 04:47:06;;;;;;;6.78;4.25;;;;;;;-1.84;61.34;97238.78;4965384;28;20038;-57
2022/01/12 04:52:06;;;;;;;7.90;4.28;;;;;;;-1.50;60.04;97247.91;4965635;28;20225;-57
2022/01/12 04:54:31;;;;;;;7.82;4.32;;;;;;;-1.44;58.64;97251.16;4965411;28;20071;-57
2022/01/12 04:56:57;;;;;;;6.00;3.95;;;;;;;-1.49;59.23;97257.44;4967638;28;20090;-57
2022/01/12 04:59:23;;;;;;;6.63;4.43;;;;;;;-1.37;60.20;97255.22;4963396;28;20034;-57
2022/01/12 05:01:56;;;;;;;6.18;4.10;;;;;;;-1.29;60.70;97247.91;4956312;28;20050;-56
2022/01/12 05:07:25;;;;;;;6.82;4.40;;;;;;;-1.14;59.49;97245.59;4965382;28;20173;-57
2022/01/12 05:12:51;;;;;;;5.95;4.30;;;;;;;-1.17;59.26;97245.72;4964568;28;20046;-57
2022/01/12 05:12:52;;;;;;;8.30;4.82;;;;;;;-1.12;60.38;97235.94;4964674;28;20042;-57
2022/01/12 05:15:25;;;;;;;5.97;4.13;;;;;;;-1.06;59.51;97240.06;4965053;28;20537;-57
2022/01/12 05:17:51;;;;;;;7.55;4.80;;;;;;;-1.06;59.86;97243.50;4962854;28;20134;-57
2022/01/12 05:20:16;;;;;;;8.07;4.72;;;;;;;-1.19;55.27;97243.16;4964609;28;20026;-57
2022/01/12 05:22:42;;;;;;;7.15;4.80;;;;;;;-1.41;55.49;97238.84;4964752;28;20098;-57
2022/01/12 05:25:07;;;;;;;6.97;3.95;;;;;;;-1.57;58.81;97243.81;4963553;28;20586;-57
2022/01/12 05:27:33;;;;;;;6.10;4.03;;;;;;;-1.47;60.68;97237.31;4965035;28;20334;-57
2022/01/12 05:29:58;;;;;;;7.00;4.22;;;;;;;-1.42;56.22;97245.00;4964657;28;20122;-57
2022/01/12 05:32:25;;;;;;;5.63;3.70;;;;;;;-1.39;59.97;97246.63;4964439;28;20027;-57
2022/01/12 05:34:57;;;;;;;5.18;3.92;;;;;;;-1.38;58.73;97248.31;4964893;28;20039;-57
2022/01/12 05:37:22;;;;;;;5.50;4.03;;;;;;;-1.46;59.71;97246.84;4952328;28;20035;-57
2022/01/12 05:39:48;;;;;;;5.53;3.85;;;;;;;-1.44;59.79;97261.63;4966689;28;20085;-57
2022/01/12 05:42:13;;;;;;;7.57;4.70;;;;;;;-1.79;55.54;97269.94;4974563;28;20035;-57
2022/01/12 05:44:41;;;;;;;5.68;3.80;;;;;;;-1.90;59.16;97278.19;4964404;28;20039;-57
2022/01/12 05:47:08;;;;;;;7.03;3.65;;;;;;;-2.21;56.46;97274.13;4973810;28;20451;-57
2022/01/12 05:49:34;;;;;;;5.32;3.60;;;;;;;-1.73;59.27;97262.72;4966302;28;20504;-57
2022/01/12 05:52:00;;;;;;;5.68;3.95;;;;;;;-1.65;59.42;97256.34;4967285;28;20053;-57
2022/01/12 05:54:25;;;;;;;10.02;5.30;;;;;;;-1.65;58.88;97246.75;4966042;28;20051;-57
2022/01/12 05:56:52;;;;;;;8.10;4.72;;;;;;;-1.62;58.95;97264.06;4964221;28;20437;-57
2022/01/12 05:59:18;;;;;;;8.45;4.40;;;;;;;-1.75;58.84;97275.00;4959880;28;20027;-57
2022/01/12 06:01:43;;;;;;;6.75;4.30;;;;;;;-1.77;58.93;97283.78;4963489;28;20034;-57
2022/01/12 06:04:08;;;;;;;6.05;3.90;;;;;;;-1.66;59.46;97273.75;4962741;28;20499;-57
2022/01/12 06:06:34;;;;;;;7.10;4.43;;;;;;;-1.52;59.64;97262.75;4963557;28;20046;-56
2022/01/12 06:08:59;;;;;;;8.02;4.70;;;;;;;-1.36;59.30;97257.78;4963633;28;20046;-57
2022/01/12 06:11:25;;;;;;;7.05;4.30;;;;;;;-1.22;59.87;97249.38;4959660;28;20039;-57
2022/01/12 06:13:52;;;;;;;6.35;4.40;;;;;;;-1.13;59.29;97253.38;4963962;28;20050;-57
2022/01/12 06:16:17;;;;;;;6.68;4.43;;;;;;;-1.05;59.00;97265.28;4963273;28;20326;-57
2022/01/12 06:18:42;;;;;;;7.60;4.68;;;;;;;-1.05;57.56;97266.09;4963552;28;20392;-57
2022/01/12 06:21:08;;;;;;;7.43;4.38;;;;;;;-1.05;58.29;97262.66;4963455;28;20046;-57
2022/01/12 06:23:34;;;;;;;6.78;4.35;;;;;;;-1.03;59.19;97272.13;4963466;28;20141;-57
2022/01/12 06:26:00;;;;;;;7.70;4.45;;;;;;;-0.96;59.17;97272.75;4963378;28;20509;-57
2022/01/12 06:31:17;;;;;;;8.75;6.00;;;;;;;-1.06;48.90;97290.56;4962083;28;20458;-57
2022/01/12 06:33:43;;;;;;;7.97;4.88;;;;;;;-1.64;51.24;97307.66;4963332;28;20274;-57
2022/01/12 06:36:09;;;;;;;6.35;4.38;;;;;;;-1.31;59.30;97315.09;4963212;28;20030;-57
2022/01/12 06:38:35;;;;;;;5.20;4.00;;;;;;;-1.02;58.45;97320.91;4963141;28;20102;-57
2022/01/12 06:41:00;;;;;;;6.63;4.10;;;;;;;-0.88;57.51;97324.75;4962991;28;20066;-57
2022/01/12 06:43:27;;;;;;;8.60;4.78;;;;;;;-0.77;57.93;97327.78;4961994;28;20539;-57
2022/01/12 06:45:53;;;;;;;7.10;4.70;;;;;;;-0.68;57.67;97330.91;4974328;28;20039;-57
2022/01/12 06:48:19;;;;;;;9.00;5.10;;;;;;;-0.59;57.63;97327.91;4976273;28;20104;-57
2022/01/12 06:50:44;;;;;;;5.82;4.03;;;;;;;-0.50;58.10;97334.50;4978864;28;20047;-57
2022/01/12 06:53:10;;;;;;;7.88;4.72;;;;;;;-0.45;56.85;97337.75;4962932;28;20031;-57
2022/01/12 06:55:35;;;;;;;7.97;4.30;;;;;;;-0.40;57.14;97334.97;4963488;28;20058;-57
2022/01/12 06:58:01;;;;;;;7.15;4.63;;;;;;;-0.33;57.69;97336.41;4963234;28;20039;-56
2022/01/12 07:00:26;;;;;;;7.95;5.10;;;;;;;-0.28;56.69;97338.78;4961482;28;20088;-57
2022/01/12 07:02:51;;;;;;;9.95;5.63;;;;;;;-0.23;56.04;97334.22;4976450;28;20345;-57
2022/01/12 07:05:17;;;;;;;7.80;4.90;;;;;;;-0.15;56.37;97328.63;4967765;28;20042;-57
2022/01/12 07:07:42;;;;;;;7.03;4.50;;;;;;;-0.12;56.24;97331.97;4963620;28;20031;-57
2022/01/12 07:10:08;;;;;;;7.68;4.43;;;;;;;-0.11;56.00;97338.06;4973856;28;20038;-57
2022/01/12 07:12:34;;;;;;;5.85;4.10;;;;;;;-0.27;56.69;97336.09;4969992;28;20489;-57
2022/01/12 07:14:59;;;;;;;6.85;4.40;;;;;;;-0.14;56.52;97338.22;4970023;28;20038;-57
2022/01/12 07:17:25;;;;;;;5.13;3.97;;;;;;;-0.52;55.82;97342.41;4964699;28;20047;-57
2022/01/12 07:19:50;;;;;;;6.00;4.63;;;;;;;-0.25;56.31;97334.28;4978393;28;20034;-57
2022/01/12 07:22:15;;;;;;;7.18;3.72;;;;;;;-0.31;57.05;97334.53;4964819;28;20079;-57
2022/01/12 07:24:41;;;;;;;10.40;6.40;;;;;;;-0.19;55.04;97328.75;4969837;28;20037;-57
2022/01/12 07:27:07;;;;;;;8.80;4.85;;;;;;;-0.22;56.70;97330.69;4969873;28;20415;-57
2022/01/12 07:29:33;;;;;;;8.38;4.75;;;;;;;-0.18;56.50;97335.72;4971484;28;20508;-57
2022/01/12 07:31:58;;;;;;;10.27;6.30;;;;;;;-0.15;55.78;97331.25;4963418;28;20033;-57
2022/01/12 07:34:23;;;;;;;14.00;8.00;;;;;;;-0.12;52.52;97333.75;4963171;28;20047;-57
2022/01/12 07:36:49;;;;;;;12.45;7.50;;;;;;;-0.10;56.48;97337.97;4972597;28;20066;-57
2022/01/12 07:39:14;;;;;;;17.13;9.55;;;;;;;-0.02;55.98;97334.19;4967378;28;20291;-57
2022/01/12 07:41:40;;;;;;;19.65;11.07;;;;;;;0.00;55.30;97333.19;4974465;28;20068;-57
2022/01/12 07:44:05;;;;;;;16.65;10.25;;;;;;;0.04;55.97;97342.59;4963378;28;20081;-57
2022/01/12 07:46:31;;;;;;;19.50;12.63;;;;;;;0.04;56.36;97349.63;4965283;28;20564;-57
2022/01/12 07:48:56;;;;;;;21.42;12.88;;;;;;;-0.36;56.03;97360.09;4972990;28;20078;-57
2022/01/12 07:51:22;;;;;;;13.77;8.73;;;;;;;-0.91;53.02;97362.34;4968177;28;20079;-57
2022/01/12 07:53:47;;;;;;;15.68;8.30;;;;;;;-1.18;54.33;97357.28;4966141;28;20080;-57
2022/01/12 07:56:12;;;;;;;16.60;11.18;;;;;;;-0.67;57.26;97354.41;4976329;28;20056;-57
2022/01/12 07:58:38;;;;;;;14.98;10.68;;;;;;;-0.22;53.63;97362.97;4975332;28;20262;-57
2022/01/12 08:01:03;;;;;;;27.83;18.63;;;;;;;-0.23;56.44;97365.63;4959747;28;20070;-57
2022/01/12 08:03:29;;;;;;;23.33;14.73;;;;;;;-0.22;54.86;97359.47;4972986;28;20066;-57
2022/01/12 08:05:54;;;;;;;29.92;19.85;;;;;;;-0.23;56.08;97348.16;4968249;28;20311;-57
2022/01/12 08:08:20;;;;;;;30.05;20.40;;;;;;;-0.22;56.84;97352.50;4974401;28;20056;-57
2022/01/12 08:10:45;;;;;;;29.77;19.42;;;;;;;-0.19;56.76;97347.09;4970267;28;20531;-57
2022/01/12 08:13:10;;;;;;;29.35;20.45;;;;;;;-0.13;56.78;97347.75;4973745;28;20103;-57
2022/01/12 08:15:36;;;;;;;25.17;18.08;;;;;;;-0.15;55.67;97349.59;4963483;28;20087;-57
2022/01/12 08:18:01;;;;;;;27.85;18.92;;;;;;;-0.16;56.23;97367.06;4964281;28;20103;-57
2022/01/12 08:20:28;;;;;;;28.67;18.38;;;;;;;-0.17;55.73;97373.22;4970641;28;20080;-57
2022/01/12 08:22:54;;;;;;;22.13;12.27;;;;;;;-0.55;55.35;97371.31;4961502;28;20433;-57
2022/01/12 08:25:19;;;;;;;17.98;9.73;;;;;;;-1.26;53.89;97388.06;4961035;28;20540;-57
2022/01/12 08:27:45;;;;;;;14.77;7.88;;;;;;;-1.66;52.86;97387.88;4967138;28;20086;-57
2022/01/12 08:30:18;;;;;;;14.18;7.53;;;;;;;-1.89;54.24;97400.88;4970153;28;20782;-57
2022/01/12 08:32:49;;;;;;;15.40;9.18;;;;;;;-1.94;56.37;97408.00;4967242;28;20109;-57
2022/01/12 08:35:15;;;;;;;23.33;15.07;;;;;;;-1.56;57.35;97415.31;4958751;28;20114;-57
2022/01/12 08:37:40;;;;;;;23.30;16.67;;;;;;;-1.00;58.19;97415.84;4968366;28;20102;-57
2022/01/12 08:40:06;;;;;;;11.77;8.35;;;;;;;-0.71;50.72;97413.81;4957780;28;20083;-57
2022/01/12 08:42:32;;;;;;;15.23;9.80;;;;;;;-0.99;53.37;97416.66;4962024;28;20111;-56
2022/01/12 08:44:59;;;;;;;21.38;14.23;;;;;;;-0.93;54.83;97423.44;4962233;28;20111;-57
2022/01/12 08:47:28;;;;;;;9.18;5.00;;;;;;;-1.24;50.37;97428.09;4966103;28;21022;-57
2022/01/12 08:49:53;;;;;;;8.52;4.95;;;;;;;-1.49;51.73;97432.47;4956048;28;20100;-57
2022/01/12 08:52:18;;;;;;;14.13;8.35;;;;;;;-1.57;53.50;97431.91;4964413;28;20090;-57
2022/01/12 08:54:44;;;;;;;17.85;11.45;;;;;;;-1.35;54.82;97421.50;4967503;28;20098;-56
2022/01/12 08:57:09;;;;;;;21.67;13.88;;;;;;;-0.91;57.08;97429.47;4973860;28;20099;-60
2022/01/12 08:59:35;;;;;;;12.25;7.18;;;;;;;-0.39;49.65;97430.88;4957354;28;20170;-58
2022/01/12 09:02:00;;;;;;;20.45;13.00;;;;;;;0.13;47.33;97434.78;4977090;28;20609;-57
2022/01/12 09:04:27;;;;;;;40.63;27.92;;;;;;;0.46;54.42;97424.59;4965445;28;20177;-57
2022/01/12 09:06:53;;;;;;;44.58;30.38;;;;;;;0.71;54.32;97433.94;4966949;28;20555;-57
2022/01/12 09:09:18;;;;;;;56.15;33.40;;;;;;;0.93;53.62;97432.09;4959807;28;20103;-57
2022/01/12 09:11:43;;;;;;;53.13;34.78;;;;;;;1.19;53.05;97428.22;4963552;28;20087;-57
2022/01/12 09:14:09;;;;;;;45.78;25.65;;;;;;;1.29;52.89;97433.88;4965984;28;20099;-57
2022/01/12 09:16:35;;;;;;;47.20;32.17;;;;;;;1.75;51.92;97437.81;4968788;28;20078;-57
2022/01/12 09:19:00;;;;;;;35.67;21.73;;;;;;;1.17;51.63;97448.44;4959821;28;20170;-58
2022/01/12 09:21:28;;;;;;;30.10;16.40;;;;;;;1.15;50.52;97457.28;4964905;28;20106;-57
2022/01/12 09:23:53;;;;;;;40.88;25.00;;;;;;;1.47;51.54;97465.41;4979966;28;20563;-57
2022/01/12 09:26:18;;;;;;;48.25;25.98;;;;;;;1.99;51.04;97463.75;4970026;28;20114;-57
2022/01/12 09:28:45;;;;;;;29.85;17.88;;;;;;;2.42;47.84;97465.09;4963889;28;20138;-57
2022/01/12 09:31:11;;;;;;;28.30;14.63;;;;;;;2.63;48.14;97458.66;4965885;28;20079;-70
2022/01/12 09:33:36;;;;;;;44.63;21.67;;;;;;;2.65;49.07;97459.44;4962975;28;20127;-68
2022/01/12 09:36:02;;;;;;;33.30;16.80;;;;;;;2.80;47.67;97464.81;4964391;28;20102;-70
2022/01/12 09:38:27;;;;;;;11.35;6.68;;;;;;;2.80;45.79;97464.81;4964005;28;20577;-70
2022/01/12 09:40:53;;;;;;;28.60;15.60;;;;;;;2.44;46.82;97463.19;4962556;28;20114;-69
2022/01/12 09:43:19;;;;;;;40.20;21.52;;;;;;;2.77;48.30;97464.97;4964364;28;20214;-71
2022/01/12 09:45:49;;;;;;;28.60;15.48;;;;;;;2.59;47.22;97472.09;4963625;28;20764;-70
2022/01/12 09:48:16;;;;;;;30.13;17.38;;;;;;;2.67;46.92;97474.28;4951046;28;20664;-70
2022/01/12 09:50:41;;;;;;;34.38;19.13;;;;;;;3.00;47.73;97466.34;4962159;28;20165;-70
2022/01/12 09:53:07;;;;;;;25.92;14.40;;;;;;;2.99;44.81;97469.91;4963783;28;20201;-71
2022/01/12 09:55:32;;;;;;;32.67;18.92;;;;;;;3.13;46.41;97453.34;4953297;28;20088;-70
2022/01/12 09:57:57;;;;;;;41.15;25.88;;;;;;;3.24;47.75;97450.13;4963560;28;20107;-71
2022/01/12 10:00:24;;;;;;;45.97;26.65;;;;;;;3.46;46.94;97453.34;4953295;28;20159;-71
2022/01/12 10:02:50;;;;;;;42.83;23.15;;;;;;;3.61;46.95;97459.53;4960311;28;20569;-70
2022/01/12 10:05:16;;;;;;;51.13;28.13;;;;;;;3.78;46.93;97461.19;4963117;28;20106;-72
2022/01/12 10:07:41;;;;;;;47.40;29.05;;;;;;;3.96;46.75;97453.13;4963155;28;20079;-69
2022/01/12 10:10:09;;;;;;;46.22;26.33;;;;;;;3.96;46.22;97453.13;4955270;28;20217;-72
2022/01/12 10:12:35;;;;;;;41.65;23.27;;;;;;;4.06;46.29;97455.13;4962978;28;20083;-71
2022/01/12 10:15:02;;;;;;;36.05;22.77;;;;;;;4.15;46.22;97455.53;4961163;28;20091;-71
2022/01/12 10:17:36;;;;;;;35.10;17.95;;;;;;;4.29;45.32;97457.34;4959650;28;20492;-71
2022/01/12 10:20:18;;;;;;;36.63;21.08;;;;;;;4.40;45.54;97464.59;4963057;28;20418;-69
2022/01/12 10:22:56;;;;;;;18.05;10.98;;;;;;;4.35;43.06;97470.13;4960911;28;20161;-70
2022/01/12 10:25:22;;;;;;;28.88;16.50;;;;;;;4.32;43.95;97457.16;4973204;28;20106;-73
2022/01/12 10:27:47;;;;;;;28.80;17.20;;;;;;;4.41;43.84;97459.22;4963471;28;20079;-73
2022/01/12 10:30:22;;;;;;;39.08;20.67;;;;;;;4.12;39.72;97459.19;4963384;28;20111;-71
2022/01/12 10:33:05;;;;;;;44.08;25.63;;;;;;;4.28;46.56;97461.75;4962832;28;20121;-73
2022/01/12 10:35:32;;;;;;;28.67;18.08;;;;;;;4.41;45.14;97451.31;4962985;28;20484;-62
2022/01/12 10:38:14;;;;;;;34.47;19.75;;;;;;;4.34;45.26;97457.91;4955700;28;20107;-73
2022/01/12 10:40:45;;;;;;;30.42;20.35;;;;;;;4.50;44.82;97456.97;4962428;28;20246;-70
2022/01/12 10:43:40;;;;;;;47.75;26.20;;;;;;;4.56;41.53;97461.88;4962335;28;20091;-72
2022/01/12 10:46:06;;;;;;;35.85;20.60;;;;;;;4.71;43.51;97468.84;4949483;28;20108;-72
2022/01/12 10:48:43;;;;;;;29.80;17.55;;;;;;;4.83;42.88;97463.75;4954586;28;20076;-72
2022/01/12 10:51:08;;;;;;;27.95;16.70;;;;;;;4.69;43.46;97468.06;4962891;28;20177;-72
2022/01/12 10:53:35;;;;;;;28.60;16.25;;;;;;;4.73;43.82;97468.72;4962246;28;20473;-73
2022/01/12 10:56:01;;;;;;;27.88;17.30;;;;;;;4.70;42.62;97459.19;4961016;28;20087;-72
2022/01/12 10:58:26;;;;;;;22.55;13.00;;;;;;;4.81;40.95;97460.34;4962429;28;20660;-69
2022/01/12 11:00:52;;;;;;;18.58;12.40;;;;;;;4.94;41.45;97460.41;4961601;28;20119;-73
2022/01/12 11:03:17;;;;;;;13.75;8.23;;;;;;;4.85;40.91;97459.19;4965211;28;20083;-69
2022/01/12 11:05:43;;;;;;;17.13;13.02;;;;;;;4.71;39.74;97463.56;4947288;28;20110;-71
2022/01/12 11:08:08;;;;;;;24.10;13.30;;;;;;;4.39;40.83;97462.91;4945619;28;20086;-72
2022/01/12 11:10:33;;;;;;;21.10;11.95;;;;;;;4.59;42.63;97456.38;4936637;28;20111;-72
2022/01/12 11:12:59;;;;;;;40.65;20.20;;;;;;;4.71;44.96;97454.78;4960975;28;20111;-70
2022/01/12 11:15:24;;;;;;;33.70;16.55;;;;;;;4.89;42.10;97450.13;4962380;28;20287;-70
2022/01/12 11:17:50;;;;;;;21.98;13.88;;;;;;;5.10;41.28;97447.09;4956894;28;20548;-71
2022/01/12 11:20:24;;;;;;;20.90;12.98;;;;;;;5.11;38.82;97446.19;4954963;28;20448;-71
2022/01/12 11:23:02;;;;;;;15.07;9.98;;;;;;;5.35;39.35;97445.53;4964683;28;20149;-71
2022/01/12 11:25:29;;;;;;;11.43;7.03;;;;;;;5.25;35.72;97436.50;4966895;28;20115;-71
2022/01/12 11:28:07;;;;;;;11.60;7.80;;;;;;;5.29;37.19;97432.72;4979347;28;20094;-70
2022/01/12 11:30:33;;;;;;;46.05;22.30;;;;;;;5.17;40.30;97442.31;4954883;28;20130;-71
2022/01/12 11:33:00;;;;;;;134.13;48.45;;;;;;;5.10;39.73;97444.47;4966773;28;20137;-71
2022/01/12 11:35:32;;;;;;;137.65;46.72;;;;;;;5.07;39.38;97449.97;4967124;28;20093;-70
2022/01/12 11:37:59;;;;;;;61.45;26.33;;;;;;;4.89;40.39;97447.50;4956212;28;20527;-71
2022/01/12 11:40:42;;;;;;;56.50;22.20;;;;;;;5.02;44.23;97446.72;4966801;28;20083;-70
2022/01/12 11:43:31;;;;;;;116.90;37.55;;;;;;;5.07;41.80;97439.41;4967050;28;20107;-69
2022/01/12 11:46:06;;;;;;;189.02;59.63;;;;;;;5.21;43.78;97441.16;4955869;28;20104;-71
2022/01/12 11:48:40;;;;;;;44.05;21.00;;;;;;;5.29;43.43;97438.84;4962678;28;20075;-71
2022/01/12 11:51:06;;;;;;;32.03;14.40;;;;;;;5.34;37.29;97433.28;4960514;28;21015;-72
2022/01/12 11:53:31;;;;;;;33.90;16.70;;;;;;;5.20;42.73;97429.72;4964637;28;20111;-71
2022/01/12 11:56:10;;;;;;;23.23;10.40;;;;;;;5.38;39.24;97432.13;4968007;28;20591;-70
2022/01/12 11:58:35;;;;;;;32.08;15.27;;;;;;;5.59;39.52;97429.88;4964451;28;20509;-68
2022/01/12 12:01:01;;;;;;;9.55;5.80;;;;;;;5.63;37.41;97427.88;4955955;28;20218;-71
2022/01/12 12:03:26;;;;;;;20.50;10.50;;;;;;;5.44;39.12;97434.34;4966220;28;20106;-70
2022/01/12 12:05:53;;;;;;;20.75;11.65;;;;;;;5.18;38.23;97444.84;4957547;28;20103;-70
2022/01/12 12:08:25;;;;;;;19.50;10.70;;;;;;;5.02;40.18;97444.06;4966322;28;20505;-70
2022/01/12 12:10:51;;;;;;;25.42;13.75;;;;;;;4.90;41.09;97446.53;4964958;28;20098;-70
2022/01/12 12:13:16;;;;;;;30.80;13.57;;;;;;;4.70;41.38;97440.72;4965210;28;20543;-70
2022/01/12 12:15:42;;;;;;;25.80;11.93;;;;;;;4.74;41.06;97430.84;4963143;28;20090;-71
2022/01/12 12:18:07;;;;;;;9.07;4.78;;;;;;;4.05;38.60;97437.59;4964504;28;20111;-70
2022/01/12 12:20:33;;;;;;;15.68;7.72;;;;;;;4.25;39.22;97435.56;4965932;28;20083;-71
2022/01/12 12:22:58;;;;;;;9.45;4.53;;;;;;;4.27;38.55;97432.84;4965942;28;20107;-68
2022/01/12 12:25:25;;;;;;;8.98;4.18;;;;;;;4.19;38.92;97433.31;4965813;28;20118;-70
2022/01/12 12:27:58;;;;;;;19.63;11.05;;;;;;;3.87;42.78;97434.28;4966198;28;20579;-70
2022/01/12 12:30:24;;;;;;;5.82;3.38;;;;;;;3.26;39.23;97447.38;4961589;28;20190;-68
2022/01/12 12:32:53;;;;;;;13.20;7.00;;;;;;;2.90;41.23;97450.22;4965770;28;20107;-71
2022/01/12 12:35:29;;;;;;;4.45;2.90;;;;;;;2.77;40.47;97451.81;4970346;28;20107;-70
2022/01/12 12:38:00;;;;;;;4.47;2.88;;;;;;;2.01;42.35;97461.91;4963794;28;20472;-71